Time,TemperatureF,DewpointF,PressureIn,WindDirection,WindDirectionDegrees,WindSpeedMPH,WindSpeedGustMPH,Humidity,HourlyPrecipIn,Conditions,Clouds,dailyrainin,SolarRadiationWatts/m^2,SoftwareType,DateUTC
2013-03-23 00:03:00,22.0,16.0,-100.00,NNE,12,9.0,21.0,78,0.00,,,0.01,0.000000,,2013-03-23 04:03:00,
2013-03-23 00:13:00,22.0,16.0,-100.00,NNE,12,9.0,21.0,78,0.00,,,0.01,0.000000,,2013-03-23 04:13:00,
2013-03-23 00:43:00,22.0,16.0,-100.00,NNE,12,9.0,24.0,79,0.00,,,0.01,0.000000,,2013-03-23 04:43:00,
2013-03-23 00:53:00,22.0,16.0,-100.00,NNE,12,9.0,24.0,79,0.00,,,0.01,0.000000,,2013-03-23 04:53:00,
2013-03-23 01:02:00,22.0,16.0,-100.00,NNE,12,9.0,24.0,79,0.00,,,0.01,0.000000,,2013-03-23 05:02:00,
2013-03-23 01:12:00,22.0,16.0,-100.00,NNE,12,9.0,24.0,79,0.00,,,0.01,0.000000,,2013-03-23 05:12:00,
2013-03-23 01:42:00,22.0,17.0,-100.00,NNE,22,10.0,23.0,81,0.00,,,0.01,0.000000,,2013-03-23 05:42:00,
2013-03-23 01:53:00,22.0,17.0,-100.00,NNE,22,10.0,23.0,81,0.00,,,0.01,0.000000,,2013-03-23 05:53:00,
2013-03-23 02:02:00,22.0,17.0,-100.00,NNE,22,10.0,23.0,81,0.00,,,0.01,0.000000,,2013-03-23 06:02:00,
2013-03-23 02:12:00,22.0,17.0,-100.00,NNE,22,10.0,23.0,81,0.00,,,0.01,0.000000,,2013-03-23 06:12:00,
2013-03-23 02:42:00,22.0,17.0,-100.00,NNE,25,9.0,19.0,82,0.00,,,0.01,0.000000,,2013-03-23 06:42:00,
2013-03-23 02:52:00,22.0,17.0,-100.00,NNE,25,9.0,19.0,82,0.00,,,0.01,0.000000,,2013-03-23 06:52:00,
2013-03-23 03:03:00,22.0,17.0,-100.00,NNE,25,9.0,19.0,82,0.00,,,0.01,0.000000,,2013-03-23 07:03:00,
2013-03-23 03:12:00,22.0,17.0,-100.00,NNE,25,9.0,19.0,82,0.00,,,0.01,0.000000,,2013-03-23 07:12:00,
2013-03-23 03:42:00,22.0,17.0,-100.00,NNE,27,10.0,20.0,82,0.00,,,0.01,0.000000,,2013-03-23 07:42:00,
2013-03-23 03:52:00,22.0,17.0,-100.00,NNE,27,10.0,20.0,82,0.00,,,0.01,0.000000,,2013-03-23 07:52:00,
2013-03-23 04:03:00,22.0,17.0,-100.00,NNE,27,10.0,20.0,82,0.00,,,0.01,0.000000,,2013-03-23 08:03:00,
2013-03-23 04:13:00,22.0,17.0,-100.00,NNE,27,10.0,20.0,82,0.00,,,0.01,0.000000,,2013-03-23 08:13:00,
2013-03-23 04:42:00,21.0,16.0,-100.00,NNE,24,7.0,16.0,79,0.00,,,0.01,0.000000,,2013-03-23 08:42:00,
2013-03-23 04:53:00,21.0,16.0,-100.00,NNE,24,7.0,16.0,79,0.00,,,0.01,0.000000,,2013-03-23 08:53:00,
2013-03-23 05:02:00,21.0,16.0,-100.00,NNE,24,7.0,16.0,79,0.00,,,0.01,0.000000,,2013-03-23 09:02:00,
2013-03-23 05:12:00,21.0,16.0,-100.00,NNE,24,7.0,16.0,79,0.00,,,0.01,0.000000,,2013-03-23 09:12:00,
2013-03-23 05:43:00,22.0,15.0,-100.00,NNE,26,6.0,18.0,75,0.00,,,0.01,0.000000,,2013-03-23 09:43:00,
2013-03-23 05:53:00,22.0,15.0,-100.00,NNE,26,6.0,18.0,75,0.00,,,0.01,0.000000,,2013-03-23 09:53:00,
2013-03-23 06:03:00,22.0,15.0,-100.00,NNE,26,6.0,18.0,75,0.00,,,0.01,0.000000,,2013-03-23 10:03:00,
2013-03-23 06:13:00,22.0,15.0,-100.00,NNE,26,6.0,18.0,75,0.00,,,0.01,0.000000,,2013-03-23 10:13:00,
2013-03-23 06:43:00,22.0,17.0,-100.00,NNE,28,7.0,15.0,80,0.00,,,0.01,0.000000,,2013-03-23 10:43:00,
2013-03-23 06:53:00,22.0,17.0,-100.00,NNE,28,7.0,15.0,80,0.00,,,0.01,0.000000,,2013-03-23 10:53:00,
2013-03-23 07:03:00,22.0,17.0,-100.00,NNE,28,7.0,15.0,80,0.00,,,0.01,0.000000,,2013-03-23 11:03:00,
2013-03-23 07:12:00,22.0,17.0,-100.00,NNE,28,7.0,15.0,80,0.00,,,0.01,0.000000,,2013-03-23 11:12:00,
2013-03-23 07:42:00,22.0,18.0,-100.00,NNE,26,8.0,15.0,84,0.00,,,0.01,1.000000,,2013-03-23 11:42:00,
2013-03-23 07:52:00,22.0,18.0,-100.00,NNE,26,8.0,15.0,84,0.00,,,0.01,1.000000,,2013-03-23 11:52:00,
2013-03-23 08:02:00,22.0,18.0,-100.00,NNE,26,8.0,15.0,84,0.00,,,0.01,1.000000,,2013-03-23 12:02:00,
2013-03-23 08:13:00,22.0,18.0,-100.00,NNE,26,8.0,15.0,84,0.00,,,0.01,1.000000,,2013-03-23 12:13:00,
2013-03-23 08:43:00,23.0,18.0,-100.00,NNE,30,7.0,12.0,82,0.00,,,0.01,25.000000,,2013-03-23 12:43:00,
2013-03-23 08:53:00,23.0,18.0,-100.00,NNE,30,7.0,12.0,82,0.00,,,0.01,25.000000,,2013-03-23 12:53:00,
2013-03-23 09:03:00,23.0,18.0,-100.00,NNE,30,7.0,12.0,82,0.00,,,0.01,25.000000,,2013-03-23 13:03:00,
2013-03-23 09:12:00,23.0,18.0,-100.00,NNE,30,7.0,12.0,82,0.00,,,0.01,25.000000,,2013-03-23 13:12:00,
2013-03-23 09:43:00,27.0,21.0,-100.00,NE,52,7.0,14.0,77,0.00,,,0.01,134.000000,,2013-03-23 13:43:00,
2013-03-23 09:53:00,27.0,21.0,-100.00,NE,52,7.0,14.0,77,0.00,,,0.01,134.000000,,2013-03-23 13:53:00,
2013-03-23 10:03:00,27.0,21.0,-100.00,NE,52,7.0,14.0,77,0.00,,,0.01,134.000000,,2013-03-23 14:03:00,
2013-03-23 10:12:00,27.0,21.0,-100.00,NE,52,7.0,14.0,77,0.00,,,0.01,134.000000,,2013-03-23 14:12:00,
2013-03-23 10:43:00,30.0,18.0,-100.00,NNW,344,9.0,15.0,60,0.00,,,0.01,446.000000,,2013-03-23 14:43:00,
2013-03-23 10:53:00,30.0,18.0,-100.00,NNW,344,9.0,15.0,60,0.00,,,0.01,446.000000,,2013-03-23 14:53:00,
2013-03-23 11:04:00,30.0,18.0,-100.00,NNW,344,9.0,15.0,60,0.00,,,0.01,446.000000,,2013-03-23 15:04:00,
2013-03-23 11:13:00,30.0,18.0,-100.00,NNW,344,9.0,15.0,60,0.00,,,0.01,446.000000,,2013-03-23 15:13:00,
2013-03-23 11:44:00,31.0,18.0,-100.00,North,359,8.0,17.0,59,0.00,,,0.01,371.000000,,2013-03-23 15:44:00,
2013-03-23 11:53:00,31.0,18.0,-100.00,North,359,8.0,17.0,59,0.00,,,0.01,371.000000,,2013-03-23 15:53:00,
2013-03-23 12:03:00,31.0,18.0,-100.00,North,359,8.0,17.0,59,0.00,,,0.01,371.000000,,2013-03-23 16:03:00,
2013-03-23 12:13:00,31.0,18.0,-100.00,North,359,8.0,17.0,59,0.00,,,0.01,371.000000,,2013-03-23 16:13:00,
2013-03-23 12:43:00,33.0,18.0,-100.00,NNW,345,7.0,19.0,53,0.00,,,0.00,387.000000,,2013-03-23 16:43:00,
2013-03-23 12:54:00,33.0,18.0,-100.00,NNW,345,7.0,19.0,53,0.00,,,0.00,387.000000,,2013-03-23 16:54:00,
2013-03-23 13:03:00,33.0,18.0,-100.00,NNW,345,7.0,19.0,53,0.00,,,0.00,387.000000,,2013-03-23 17:03:00,
2013-03-23 13:12:00,33.0,18.0,-100.00,NNW,345,7.0,19.0,53,0.00,,,0.00,387.000000,,2013-03-23 17:12:00,
2013-03-23 13:43:00,36.0,20.0,-100.00,North,359,9.0,18.0,51,0.00,,,0.00,433.000000,,2013-03-23 17:43:00,
2013-03-23 13:53:00,36.0,20.0,-100.00,North,359,9.0,18.0,51,0.00,,,0.00,433.000000,,2013-03-23 17:53:00,
2013-03-23 14:03:00,36.0,20.0,-100.00,North,359,9.0,18.0,51,0.00,,,0.00,433.000000,,2013-03-23 18:03:00,
2013-03-23 14:12:00,36.0,20.0,-100.00,North,359,9.0,18.0,51,0.00,,,0.00,433.000000,,2013-03-23 18:12:00,
2013-03-23 14:43:00,34.0,15.0,-100.00,North,356,10.0,20.0,46,0.00,,,0.00,479.000000,,2013-03-23 18:43:00,
2013-03-23 14:53:00,34.0,15.0,-100.00,North,356,10.0,20.0,46,0.00,,,0.00,479.000000,,2013-03-23 18:53:00,
2013-03-23 15:03:00,34.0,15.0,-100.00,North,356,10.0,20.0,46,0.00,,,0.00,479.000000,,2013-03-23 19:03:00,
2013-03-23 15:13:00,34.0,15.0,-100.00,North,356,10.0,20.0,46,0.00,,,0.00,479.000000,,2013-03-23 19:13:00,
2013-03-23 15:43:00,33.0,16.0,-100.00,North,357,10.0,18.0,49,0.00,,,0.00,333.000000,,2013-03-23 19:43:00,
2013-03-23 15:53:00,33.0,16.0,-100.00,North,357,10.0,18.0,49,0.00,,,0.00,333.000000,,2013-03-23 19:53:00,
2013-03-23 16:03:00,33.0,16.0,-100.00,North,357,10.0,18.0,49,0.00,,,0.00,333.000000,,2013-03-23 20:03:00,
2013-03-23 16:13:00,33.0,16.0,-100.00,North,357,10.0,18.0,49,0.00,,,0.00,333.000000,,2013-03-23 20:13:00,
2013-03-23 16:43:00,32.0,15.0,-100.00,North,356,11.0,21.0,48,0.00,,,0.00,266.000000,,2013-03-23 20:43:00,
2013-03-23 16:53:00,32.0,15.0,-100.00,North,356,11.0,21.0,48,0.00,,,0.00,266.000000,,2013-03-23 20:53:00,
2013-03-23 17:03:00,32.0,15.0,-100.00,North,356,11.0,21.0,48,0.00,,,0.00,266.000000,,2013-03-23 21:03:00,
2013-03-23 17:12:00,32.0,15.0,-100.00,North,356,11.0,21.0,48,0.00,,,0.00,266.000000,,2013-03-23 21:12:00,
2013-03-23 17:43:00,32.0,14.0,-100.00,North,1,11.0,22.0,47,0.00,,,0.00,279.000000,,2013-03-23 21:43:00,
2013-03-23 17:54:00,32.0,14.0,-100.00,North,1,11.0,22.0,47,0.00,,,0.00,279.000000,,2013-03-23 21:54:00,
2013-03-23 18:03:00,32.0,14.0,-100.00,North,1,11.0,22.0,47,0.00,,,0.00,279.000000,,2013-03-23 22:03:00,
2013-03-23 18:13:00,32.0,14.0,-100.00,North,1,11.0,22.0,47,0.00,,,0.00,279.000000,,2013-03-23 22:13:00,
2013-03-23 18:43:00,34.0,19.0,-100.00,North,354,8.0,25.0,53,0.00,,,0.00,174.000000,,2013-03-23 22:43:00,
2013-03-23 18:53:00,34.0,19.0,-100.00,North,354,8.0,25.0,53,0.00,,,0.00,174.000000,,2013-03-23 22:53:00,
2013-03-23 19:03:00,34.0,19.0,-100.00,North,354,8.0,25.0,53,0.00,,,0.00,174.000000,,2013-03-23 23:03:00,
2013-03-23 19:13:00,34.0,19.0,-100.00,North,354,8.0,25.0,53,0.00,,,0.00,174.000000,,2013-03-23 23:13:00,
2013-03-23 19:43:00,30.0,15.0,-100.00,North,356,7.0,19.0,54,0.00,,,0.00,54.000000,,2013-03-23 23:43:00,
2013-03-23 19:53:00,30.0,15.0,-100.00,North,356,7.0,19.0,54,0.00,,,0.00,54.000000,,2013-03-23 23:53:00,
2013-03-23 20:02:00,30.0,15.0,-100.00,North,356,7.0,19.0,54,0.00,,,0.00,54.000000,,2013-03-24 00:02:00,
2013-03-23 20:13:00,30.0,15.0,-100.00,North,356,7.0,19.0,54,0.00,,,0.00,54.000000,,2013-03-24 00:13:00,
2013-03-23 20:42:00,28.0,14.0,-100.00,North,355,9.0,16.0,55,0.00,,,0.00,2.000000,,2013-03-24 00:42:00,
2013-03-23 20:53:00,28.0,14.0,-100.00,North,355,9.0,16.0,55,0.00,,,0.00,2.000000,,2013-03-24 00:53:00,
2013-03-23 21:02:00,28.0,14.0,-100.00,North,355,9.0,16.0,55,0.00,,,0.00,2.000000,,2013-03-24 01:02:00,
2013-03-23 21:12:00,28.0,14.0,-100.00,North,355,9.0,16.0,55,0.00,,,0.00,2.000000,,2013-03-24 01:12:00,
2013-03-23 21:43:00,27.0,14.0,-100.00,NE,34,6.0,16.0,57,0.00,,,0.00,0.000000,,2013-03-24 01:43:00,
2013-03-23 21:53:00,27.0,14.0,-100.00,NE,34,6.0,16.0,57,0.00,,,0.00,0.000000,,2013-03-24 01:53:00,
2013-03-23 22:03:00,27.0,14.0,-100.00,NE,34,6.0,16.0,57,0.00,,,0.00,0.000000,,2013-03-24 02:03:00,
2013-03-23 22:12:00,27.0,14.0,-100.00,NE,34,6.0,16.0,57,0.00,,,0.00,0.000000,,2013-03-24 02:12:00,
2013-03-23 22:43:00,26.0,14.0,-100.00,NNW,327,8.0,17.0,59,0.00,,,0.00,0.000000,,2013-03-24 02:43:00,
2013-03-23 22:52:00,26.0,14.0,-100.00,NNW,327,8.0,17.0,59,0.00,,,0.00,0.000000,,2013-03-24 02:52:00,
2013-03-23 23:03:00,26.0,14.0,-100.00,NNW,327,8.0,17.0,59,0.00,,,0.00,0.000000,,2013-03-24 03:03:00,
2013-03-23 23:13:00,26.0,14.0,-100.00,NNW,327,8.0,17.0,59,0.00,,,0.00,0.000000,,2013-03-24 03:13:00,
2013-03-23 23:43:00,26.0,15.0,-100.00,NNW,345,10.0,17.0,63,0.00,,,0.00,0.000000,,2013-03-24 03:43:00,
2013-03-23 23:53:00,26.0,15.0,-100.00,NNW,345,10.0,17.0,63,0.00,,,0.00,0.000000,,2013-03-24 03:53:00,